SWA636 KHOU-KCRP
Flight info
| Callsign | SWA636 |
|---|---|
| Flight time | 0h 41m |
| Altitude | 28000 |
| Route | PTRON9 PSX V20 CRP |
| Aircraft | B738/M-SDE3/STD |
Departure
| Time | 2026-04-27 12:14 |
|---|---|
| Airport | William P. Hobby Airport (KHOU) |
Arrival
| Time | 2026-04-27 12:56 |
|---|---|
| Airport | Corpus Christi International Airport (KCRP) |
| Time | Latitude | Longitude | Altitude | Speed | Heading |
|---|---|---|---|---|---|
| 2026-04-27 11:53 | 29.65249 | -95.27662 | 51 ft | 0 kts | 357° |
| 2026-04-27 11:57 | 29.65227 | -95.27661 | 51 ft | 4 kts | 357° |
| 2026-04-27 11:57 | 29.65209 | -95.27660 | 51 ft | 2 kts | 5° |
| 2026-04-27 11:58 | 29.65196 | -95.27664 | 51 ft | 1 kts | 27° |
| 2026-04-27 11:58 | 29.65186 | -95.27673 | 51 ft | 1 kts | 50° |
| 2026-04-27 11:58 | 29.65180 | -95.27685 | 51 ft | 1 kts | 72° |
| 2026-04-27 11:58 | 29.65178 | -95.27699 | 51 ft | 1 kts | 87° |
| 2026-04-27 11:59 | 29.65178 | -95.27700 | 51 ft | 0 kts | 87° |
| 2026-04-27 12:06 | 29.65177 | -95.27695 | 51 ft | 2 kts | 96° |
| 2026-04-27 12:06 | 29.65159 | -95.27650 | 51 ft | 9 kts | 120° |
| 2026-04-27 12:06 | 29.65128 | -95.27573 | 51 ft | 9 kts | 86° |
| 2026-04-27 12:07 | 29.65134 | -95.27515 | 51 ft | 5 kts | 78° |
| 2026-04-27 12:07 | 29.65140 | -95.27492 | 51 ft | 0 kts | 70° |
| 2026-04-27 12:07 | 29.65140 | -95.27490 | 51 ft | 0 kts | 70° |
| 2026-04-27 12:07 | 29.65141 | -95.27489 | 51 ft | 0 kts | 70° |
| 2026-04-27 12:08 | 29.65142 | -95.27487 | 51 ft | 0 kts | 69° |
| 2026-04-27 12:08 | 29.65142 | -95.27486 | 51 ft | 0 kts | 69° |
| 2026-04-27 12:08 | 29.65142 | -95.27483 | 51 ft | 0 kts | 69° |
| 2026-04-27 12:08 | 29.65145 | -95.27473 | 51 ft | 6 kts | 73° |
| 2026-04-27 12:09 | 29.65185 | -95.27372 | 51 ft | 21 kts | 44° |
| 2026-04-27 12:09 | 29.65285 | -95.27262 | 51 ft | 18 kts | 43° |
| 2026-04-27 12:09 | 29.65377 | -95.27162 | 51 ft | 18 kts | 44° |
| 2026-04-27 12:09 | 29.65465 | -95.27065 | 51 ft | 15 kts | 46° |
| 2026-04-27 12:10 | 29.65470 | -95.26968 | 51 ft | 8 kts | 99° |
| 2026-04-27 12:10 | 29.65468 | -95.26959 | 51 ft | 0 kts | 108° |
| 2026-04-27 12:13 | 29.65451 | -95.26928 | 51 ft | 10 kts | 133° |
| 2026-04-27 12:13 | 29.65384 | -95.26915 | 51 ft | 10 kts | 210° |
| 2026-04-27 12:14 | 29.65156 | -95.27155 | 52 ft | 93 kts | 224° |
| 2026-04-27 12:14 | 29.64471 | -95.27922 | 173 ft | 171 kts | 223° |
| 2026-04-27 12:14 | 29.63553 | -95.28941 | 932 ft | 202 kts | 222° |
| 2026-04-27 12:14 | 29.62474 | -95.30137 | 1731 ft | 237 kts | 223° |
| 2026-04-27 12:15 | 29.61225 | -95.31522 | 2535 ft | 256 kts | 223° |
| 2026-04-27 12:15 | 29.59957 | -95.32933 | 3183 ft | 258 kts | 224° |
| 2026-04-27 12:15 | 29.58637 | -95.34333 | 3820 ft | 259 kts | 218° |
| 2026-04-27 12:15 | 29.57192 | -95.35599 | 4453 ft | 261 kts | 214° |
| 2026-04-27 12:16 | 29.55678 | -95.36721 | 5074 ft | 264 kts | 210° |
| 2026-04-27 12:16 | 29.54018 | -95.37648 | 5707 ft | 267 kts | 199° |
| 2026-04-27 12:16 | 29.52210 | -95.38133 | 6349 ft | 271 kts | 178° |
| 2026-04-27 12:16 | 29.50376 | -95.37585 | 7096 ft | 278 kts | 157° |
| 2026-04-27 12:17 | 29.48573 | -95.36790 | 7718 ft | 282 kts | 162° |
| 2026-04-27 12:17 | 29.46740 | -95.36032 | 8341 ft | 284 kts | 161° |
| 2026-04-27 12:17 | 29.44883 | -95.35267 | 8964 ft | 287 kts | 161° |
| 2026-04-27 12:17 | 29.42993 | -95.34486 | 9592 ft | 291 kts | 161° |
| 2026-04-27 12:18 | 29.41086 | -95.33701 | 10218 ft | 294 kts | 161° |
| 2026-04-27 12:18 | 29.39120 | -95.33173 | 10810 ft | 295 kts | 178° |
| 2026-04-27 12:18 | 29.37083 | -95.33431 | 11453 ft | 296 kts | 195° |
| 2026-04-27 12:18 | 29.35084 | -95.33944 | 12095 ft | 300 kts | 194° |
| 2026-04-27 12:19 | 29.33082 | -95.34677 | 12724 ft | 303 kts | 199° |
| 2026-04-27 12:19 | 29.31085 | -95.35386 | 13363 ft | 306 kts | 199° |
| 2026-04-27 12:19 | 29.29052 | -95.36089 | 13989 ft | 309 kts | 199° |
| 2026-04-27 12:19 | 29.26975 | -95.36788 | 14618 ft | 312 kts | 199° |
| 2026-04-27 12:20 | 29.24881 | -95.37473 | 15246 ft | 315 kts | 199° |
| 2026-04-27 12:20 | 29.22795 | -95.38138 | 15869 ft | 318 kts | 199° |
| 2026-04-27 12:20 | 29.20629 | -95.38809 | 16536 ft | 328 kts | 199° |
| 2026-04-27 12:20 | 29.18396 | -95.39488 | 17259 ft | 342 kts | 199° |
| 2026-04-27 12:21 | 29.16102 | -95.40312 | 17952 ft | 350 kts | 210° |
| 2026-04-27 12:21 | 29.14084 | -95.41814 | 18624 ft | 345 kts | 227° |
| 2026-04-27 12:21 | 29.12561 | -95.43851 | 19240 ft | 335 kts | 242° |
| 2026-04-27 12:21 | 29.11328 | -95.46072 | 19901 ft | 328 kts | 246° |
| 2026-04-27 12:22 | 29.10334 | -95.48392 | 20523 ft | 324 kts | 249° |
| 2026-04-27 12:22 | 29.09364 | -95.50682 | 21131 ft | 321 kts | 249° |
| 2026-04-27 12:22 | 29.08398 | -95.52961 | 21746 ft | 318 kts | 249° |
| 2026-04-27 12:22 | 29.07414 | -95.55262 | 22371 ft | 315 kts | 249° |
| 2026-04-27 12:23 | 29.06441 | -95.57527 | 22991 ft | 313 kts | 249° |
| 2026-04-27 12:23 | 29.05476 | -95.59759 | 23607 ft | 310 kts | 249° |
| 2026-04-27 12:23 | 29.04528 | -95.61942 | 24214 ft | 309 kts | 249° |
| 2026-04-27 12:23 | 29.03576 | -95.64121 | 24823 ft | 306 kts | 249° |
| 2026-04-27 12:24 | 29.02630 | -95.66274 | 25441 ft | 304 kts | 249° |
| 2026-04-27 12:24 | 29.01675 | -95.68430 | 26074 ft | 302 kts | 249° |
| 2026-04-27 12:24 | 29.00719 | -95.70563 | 26697 ft | 300 kts | 248° |
| 2026-04-27 12:24 | 28.99791 | -95.72673 | 27265 ft | 300 kts | 249° |
| 2026-04-27 12:25 | 28.98845 | -95.74772 | 27675 ft | 299 kts | 249° |
| 2026-04-27 12:25 | 28.97888 | -95.76894 | 27818 ft | 300 kts | 249° |
| 2026-04-27 12:25 | 28.96943 | -95.79002 | 27827 ft | 299 kts | 249° |
| 2026-04-27 12:25 | 28.96003 | -95.81115 | 27831 ft | 296 kts | 249° |
| 2026-04-27 12:26 | 28.95071 | -95.83214 | 27839 ft | 296 kts | 249° |
| 2026-04-27 12:26 | 28.94151 | -95.85287 | 27840 ft | 296 kts | 249° |
| 2026-04-27 12:26 | 28.93231 | -95.87373 | 27844 ft | 296 kts | 249° |
| 2026-04-27 12:26 | 28.92387 | -95.89501 | 27841 ft | 294 kts | 252° |
| 2026-04-27 12:27 | 28.91573 | -95.91655 | 27857 ft | 294 kts | 252° |
| 2026-04-27 12:27 | 28.90769 | -95.93785 | 27856 ft | 294 kts | 252° |
| 2026-04-27 12:27 | 28.89951 | -95.95949 | 27855 ft | 295 kts | 252° |
| 2026-04-27 12:27 | 28.89150 | -95.98077 | 27867 ft | 303 kts | 252° |
| 2026-04-27 12:28 | 28.88292 | -96.00388 | 27876 ft | 324 kts | 252° |
| 2026-04-27 12:28 | 28.87395 | -96.02838 | 27912 ft | 343 kts | 252° |
| 2026-04-27 12:28 | 28.86478 | -96.05370 | 27903 ft | 346 kts | 252° |
| 2026-04-27 12:28 | 28.85574 | -96.07873 | 27879 ft | 343 kts | 252° |
| 2026-04-27 12:29 | 28.84671 | -96.10367 | 27850 ft | 342 kts | 252° |
| 2026-04-27 12:29 | 28.83767 | -96.12863 | 27857 ft | 341 kts | 252° |
| 2026-04-27 12:29 | 28.82859 | -96.15376 | 27856 ft | 341 kts | 252° |
| 2026-04-27 12:29 | 28.81960 | -96.17866 | 27857 ft | 342 kts | 252° |
| 2026-04-27 12:30 | 28.81053 | -96.20377 | 27857 ft | 342 kts | 252° |
| 2026-04-27 12:30 | 28.80153 | -96.22871 | 27857 ft | 342 kts | 252° |
| 2026-04-27 12:30 | 28.79174 | -96.25369 | 27853 ft | 345 kts | 248° |
| 2026-04-27 12:30 | 28.78001 | -96.27715 | 27838 ft | 335 kts | 245° |
| 2026-04-27 12:31 | 28.76793 | -96.29901 | 27782 ft | 320 kts | 244° |
| 2026-04-27 12:31 | 28.75575 | -96.31937 | 27660 ft | 309 kts | 242° |
| 2026-04-27 12:31 | 28.74347 | -96.33948 | 27125 ft | 310 kts | 242° |
| 2026-04-27 12:31 | 28.73106 | -96.35958 | 26634 ft | 309 kts | 241° |
| 2026-04-27 12:32 | 28.71884 | -96.37925 | 26163 ft | 308 kts | 241° |
| 2026-04-27 12:32 | 28.70645 | -96.39914 | 25691 ft | 306 kts | 241° |
| 2026-04-27 12:32 | 28.69429 | -96.41862 | 25237 ft | 305 kts | 240° |
| 2026-04-27 12:32 | 28.68192 | -96.43842 | 24772 ft | 303 kts | 240° |
| 2026-04-27 12:33 | 28.66983 | -96.45776 | 24316 ft | 302 kts | 240° |
| 2026-04-27 12:33 | 28.65775 | -96.47707 | 23856 ft | 301 kts | 240° |
| 2026-04-27 12:33 | 28.64561 | -96.49648 | 23391 ft | 300 kts | 239° |
| 2026-04-27 12:33 | 28.63367 | -96.51554 | 22937 ft | 299 kts | 239° |
| 2026-04-27 12:34 | 28.62166 | -96.53472 | 22479 ft | 298 kts | 239° |
| 2026-04-27 12:34 | 28.60960 | -96.55396 | 22017 ft | 297 kts | 239° |
| 2026-04-27 12:34 | 28.59766 | -96.57300 | 21560 ft | 296 kts | 239° |
| 2026-04-27 12:34 | 28.58568 | -96.59196 | 21099 ft | 296 kts | 237° |
| 2026-04-27 12:35 | 28.57358 | -96.61083 | 20623 ft | 294 kts | 237° |
| 2026-04-27 12:35 | 28.56154 | -96.62981 | 20146 ft | 293 kts | 237° |
| 2026-04-27 12:35 | 28.54951 | -96.64887 | 19667 ft | 292 kts | 237° |
| 2026-04-27 12:35 | 28.53770 | -96.66762 | 19206 ft | 291 kts | 236° |
| 2026-04-27 12:36 | 28.52577 | -96.68658 | 18739 ft | 291 kts | 236° |
| 2026-04-27 12:36 | 28.51405 | -96.70521 | 18280 ft | 290 kts | 236° |
| 2026-04-27 12:36 | 28.50226 | -96.72394 | 17817 ft | 290 kts | 235° |
| 2026-04-27 12:36 | 28.49074 | -96.74259 | 17358 ft | 290 kts | 237° |
| 2026-04-27 12:37 | 28.47907 | -96.76141 | 16910 ft | 290 kts | 237° |
| 2026-04-27 12:37 | 28.46737 | -96.77996 | 16461 ft | 290 kts | 236° |
| 2026-04-27 12:37 | 28.45565 | -96.79871 | 16014 ft | 291 kts | 236° |
| 2026-04-27 12:37 | 28.44388 | -96.81743 | 15566 ft | 291 kts | 236° |
| 2026-04-27 12:38 | 28.43225 | -96.83591 | 15123 ft | 292 kts | 236° |
| 2026-04-27 12:38 | 28.42049 | -96.85456 | 14677 ft | 292 kts | 235° |
| 2026-04-27 12:38 | 28.40860 | -96.87339 | 14226 ft | 292 kts | 235° |
| 2026-04-27 12:38 | 28.39669 | -96.89225 | 13775 ft | 293 kts | 235° |
| 2026-04-27 12:39 | 28.38488 | -96.91067 | 13326 ft | 293 kts | 233° |
| 2026-04-27 12:39 | 28.37285 | -96.92934 | 12860 ft | 293 kts | 233° |
| 2026-04-27 12:39 | 28.36097 | -96.94793 | 12399 ft | 293 kts | 233° |
| 2026-04-27 12:39 | 28.34905 | -96.96672 | 11938 ft | 293 kts | 233° |
| 2026-04-27 12:40 | 28.33723 | -96.98529 | 11480 ft | 293 kts | 233° |
| 2026-04-27 12:40 | 28.32526 | -97.00415 | 11016 ft | 292 kts | 233° |
| 2026-04-27 12:40 | 28.31350 | -97.02306 | 10566 ft | 292 kts | 235° |
| 2026-04-27 12:40 | 28.30176 | -97.04188 | 10122 ft | 292 kts | 235° |
| 2026-04-27 12:41 | 28.29007 | -97.06049 | 9731 ft | 291 kts | 234° |
| 2026-04-27 12:41 | 28.27839 | -97.07899 | 9330 ft | 289 kts | 234° |
| 2026-04-27 12:41 | 28.26666 | -97.09752 | 8929 ft | 288 kts | 234° |
| 2026-04-27 12:41 | 28.25504 | -97.11581 | 8532 ft | 287 kts | 234° |
| 2026-04-27 12:42 | 28.24348 | -97.13403 | 8099 ft | 278 kts | 234° |
| 2026-04-27 12:42 | 28.23252 | -97.15128 | 7643 ft | 262 kts | 234° |
| 2026-04-27 12:42 | 28.22218 | -97.16753 | 7183 ft | 250 kts | 234° |
| 2026-04-27 12:42 | 28.21214 | -97.18333 | 6754 ft | 239 kts | 234° |
| 2026-04-27 12:43 | 28.20259 | -97.19834 | 6397 ft | 239 kts | 234° |
| 2026-04-27 12:43 | 28.19278 | -97.21377 | 6052 ft | 242 kts | 234° |
| 2026-04-27 12:43 | 28.18286 | -97.22934 | 5707 ft | 244 kts | 234° |
| 2026-04-27 12:43 | 28.17290 | -97.24498 | 5363 ft | 246 kts | 234° |
| 2026-04-27 12:44 | 28.16295 | -97.26059 | 5021 ft | 248 kts | 234° |
| 2026-04-27 12:44 | 28.15277 | -97.27656 | 4672 ft | 249 kts | 234° |
| 2026-04-27 12:44 | 28.14268 | -97.29238 | 4329 ft | 250 kts | 234° |
| 2026-04-27 12:44 | 28.13252 | -97.30832 | 3984 ft | 252 kts | 233° |
| 2026-04-27 12:45 | 28.12221 | -97.32448 | 3635 ft | 252 kts | 233° |
| 2026-04-27 12:45 | 28.11190 | -97.34063 | 3305 ft | 252 kts | 233° |
| 2026-04-27 12:45 | 28.10163 | -97.35671 | 3006 ft | 251 kts | 233° |
| 2026-04-27 12:45 | 28.09141 | -97.37270 | 2705 ft | 250 kts | 233° |
| 2026-04-27 12:46 | 28.08132 | -97.38848 | 2419 ft | 249 kts | 233° |
| 2026-04-27 12:46 | 28.07127 | -97.40420 | 2220 ft | 244 kts | 233° |
| 2026-04-27 12:46 | 28.06136 | -97.41969 | 2010 ft | 240 kts | 233° |
| 2026-04-27 12:46 | 28.05175 | -97.43471 | 1989 ft | 228 kts | 233° |
| 2026-04-27 12:47 | 28.04271 | -97.44884 | 1975 ft | 217 kts | 233° |
| 2026-04-27 12:47 | 28.03409 | -97.46230 | 1956 ft | 206 kts | 233° |
| 2026-04-27 12:47 | 28.02595 | -97.47501 | 1975 ft | 193 kts | 233° |
| 2026-04-27 12:47 | 28.01820 | -97.48712 | 1972 ft | 190 kts | 233° |
| 2026-04-27 12:48 | 28.01031 | -97.49940 | 1993 ft | 193 kts | 231° |
| 2026-04-27 12:48 | 28.00226 | -97.51173 | 1992 ft | 194 kts | 233° |
| 2026-04-27 12:48 | 27.99436 | -97.52421 | 1993 ft | 194 kts | 233° |
| 2026-04-27 12:48 | 27.98648 | -97.53657 | 1993 ft | 194 kts | 233° |
| 2026-04-27 12:49 | 27.97891 | -97.54857 | 1989 ft | 180 kts | 233° |
| 2026-04-27 12:49 | 27.97187 | -97.55975 | 1958 ft | 169 kts | 233° |
| 2026-04-27 12:49 | 27.96510 | -97.57053 | 1986 ft | 170 kts | 233° |
| 2026-04-27 12:49 | 27.95819 | -97.58153 | 1998 ft | 173 kts | 233° |
| 2026-04-27 12:50 | 27.95122 | -97.59261 | 1996 ft | 174 kts | 233° |
| 2026-04-27 12:50 | 27.94420 | -97.60380 | 1904 ft | 176 kts | 233° |
| 2026-04-27 12:50 | 27.93558 | -97.61328 | 1804 ft | 171 kts | 219° |
| 2026-04-27 12:50 | 27.92632 | -97.62193 | 1798 ft | 170 kts | 219° |
| 2026-04-27 12:51 | 27.91724 | -97.63039 | 1799 ft | 172 kts | 219° |
| 2026-04-27 12:51 | 27.90695 | -97.63732 | 1803 ft | 171 kts | 204° |
| 2026-04-27 12:51 | 27.89593 | -97.64235 | 1784 ft | 172 kts | 190° |
| 2026-04-27 12:51 | 27.88439 | -97.64095 | 1797 ft | 170 kts | 156° |
| 2026-04-27 12:52 | 27.87544 | -97.63247 | 1799 ft | 172 kts | 122° |
| 2026-04-27 12:52 | 27.87037 | -97.62012 | 1813 ft | 173 kts | 116° |
| 2026-04-27 12:52 | 27.86497 | -97.60809 | 1781 ft | 172 kts | 132° |
| 2026-04-27 12:52 | 27.85597 | -97.59910 | 1808 ft | 171 kts | 139° |
| 2026-04-27 12:53 | 27.84001 | -97.58230 | 1687 ft | 148 kts | 137° |
| 2026-04-27 12:53 | 27.83254 | -97.57417 | 1480 ft | 147 kts | 137° |
| 2026-04-27 12:53 | 27.82518 | -97.56614 | 1299 ft | 147 kts | 137° |
| 2026-04-27 12:54 | 27.81792 | -97.55820 | 1120 ft | 147 kts | 137° |
| 2026-04-27 12:54 | 27.81060 | -97.55017 | 933 ft | 147 kts | 137° |
| 2026-04-27 12:54 | 27.80324 | -97.54211 | 740 ft | 146 kts | 137° |
| 2026-04-27 12:54 | 27.79597 | -97.53416 | 546 ft | 145 kts | 137° |
| 2026-04-27 12:55 | 27.78871 | -97.52621 | 352 ft | 145 kts | 137° |
| 2026-04-27 12:55 | 27.78160 | -97.51843 | 165 ft | 145 kts | 135° |
| 2026-04-27 12:55 | 27.77457 | -97.51060 | 61 ft | 136 kts | 138° |
| 2026-04-27 12:55 | 27.76891 | -97.50455 | 45 ft | 62 kts | 136° |
| 2026-04-27 12:56 | 27.76695 | -97.50241 | 45 ft | 24 kts | 138° |
| 2026-04-27 12:56 | 27.76621 | -97.50142 | 44 ft | 12 kts | 91° |
| 2026-04-27 12:56 | 27.76653 | -97.50082 | 44 ft | 7 kts | 47° |
| 2026-04-27 12:56 | 27.76677 | -97.50053 | 44 ft | 2 kts | 46° |
| 2026-04-27 12:57 | 27.76689 | -97.50039 | 45 ft | 4 kts | 45° |
| 2026-04-27 12:57 | 27.76737 | -97.50027 | 44 ft | 10 kts | 338° |
| 2026-04-27 12:57 | 27.76809 | -97.50098 | 44 ft | 17 kts | 315° |
| 2026-04-27 12:57 | 27.76901 | -97.50203 | 44 ft | 17 kts | 316° |
| 2026-04-27 12:58 | 27.76981 | -97.50285 | 45 ft | 13 kts | 315° |
| 2026-04-27 12:58 | 27.77049 | -97.50359 | 45 ft | 15 kts | 316° |
| 2026-04-27 12:58 | 27.77119 | -97.50423 | 44 ft | 10 kts | 342° |
| 2026-04-27 12:58 | 27.77190 | -97.50420 | 44 ft | 12 kts | 27° |
| 2026-04-27 12:59 | 27.77277 | -97.50362 | 44 ft | 17 kts | 347° |
| 2026-04-27 12:59 | 27.77371 | -97.50344 | 44 ft | 16 kts | 100° |
| 2026-04-27 12:59 | 27.77373 | -97.50283 | 44 ft | 0 kts | 77° |